Time;durP1;ratioP1;P1;durP2;ratioP2;P2;SDS_P1;SDS_P2;PMS_P1;PMS_P2;Temp;Humidity;BMP_temperature;BMP_pressure;BME280_temperature;BME280_humidity;BME280_pressure;Samples;Min_cycle;Max_cycle;Signal;HPM_P1;HPM_P2
2023/03/26 00:00:48;;;;;;;3.90;1.60;;;;;;;18.71;53.03;99086.75;5116424;28;20099;-65
2023/03/26 00:03:16;;;;;;;4.47;1.77;;;;;;;18.69;52.91;99087.75;5115995;28;20044;-64
2023/03/26 00:05:42;;;;;;;3.80;1.92;;;;;;;18.69;52.66;99088.59;5116311;28;20024;-64
2023/03/26 00:08:08;;;;;;;4.22;1.40;;;;;;;18.70;52.96;99084.19;5116243;28;20482;-64
2023/03/26 00:10:35;;;;;;;3.65;1.70;;;;;;;18.69;52.84;99087.75;5115981;28;20024;-64
2023/03/26 00:13:01;;;;;;;4.50;1.60;;;;;;;18.68;52.96;99073.69;5116099;28;20020;-64
2023/03/26 00:15:27;;;;;;;3.13;1.50;;;;;;;18.68;52.66;99071.03;5115947;28;20485;-64
2023/03/26 00:17:53;;;;;;;3.65;1.48;;;;;;;18.66;52.58;99094.06;5115829;28;20064;-64
2023/03/26 00:20:19;;;;;;;2.70;1.50;;;;;;;18.66;52.81;99099.34;5116030;28;20485;-64
2023/03/26 00:22:44;;;;;;;3.90;1.52;;;;;;;18.64;52.67;99098.56;5115834;28;20030;-64
2023/03/26 00:25:10;;;;;;;4.63;1.92;;;;;;;18.65;52.83;99101.13;5115868;28;20026;-64
2023/03/26 00:27:36;;;;;;;5.22;1.52;;;;;;;18.65;52.67;99092.38;5115904;28;20034;-64
2023/03/26 00:30:03;;;;;;;3.97;1.50;;;;;;;18.63;52.40;99079.25;5115607;28;20056;-64
2023/03/26 00:32:29;;;;;;;4.63;1.90;;;;;;;18.63;52.57;99078.38;5115368;28;20062;-64
2023/03/26 00:34:56;;;;;;;3.95;1.60;;;;;;;18.64;52.56;99074.78;5115714;28;20027;-64
2023/03/26 00:37:25;;;;;;;4.18;1.42;;;;;;;18.62;52.75;99097.81;5115781;28;20059;-64
2023/03/26 00:39:58;;;;;;;4.30;1.40;;;;;;;18.61;52.84;99085.56;5115700;28;20027;-64
2023/03/26 00:42:24;;;;;;;3.58;1.73;;;;;;;18.59;52.77;99082.16;5115619;28;20058;-64
2023/03/26 00:44:53;;;;;;;3.90;1.65;;;;;;;18.59;53.02;99083.00;5115332;28;20035;-64
2023/03/26 00:47:20;;;;;;;3.72;1.55;;;;;;;18.57;52.73;99090.16;5115134;28;20058;-64
2023/03/26 00:49:47;;;;;;;5.28;1.70;;;;;;;18.57;52.69;99095.44;5115384;28;20028;-64
2023/03/26 00:52:17;;;;;;;3.80;1.45;;;;;;;18.58;52.91;99077.78;5115126;28;20024;-64
2023/03/26 00:54:43;;;;;;;2.78;1.40;;;;;;;18.56;52.63;99077.03;5115428;28;20480;-63
2023/03/26 00:57:09;;;;;;;5.22;1.60;;;;;;;18.58;52.79;99075.13;5097126;28;20032;-64
2023/03/26 00:59:34;;;;;;;4.10;1.73;;;;;;;18.56;52.74;99062.03;5115246;28;20114;-64
2023/03/26 01:02:01;;;;;;;3.63;1.52;;;;;;;18.54;52.88;99074.47;5114939;28;20050;-64
2023/03/26 01:04:29;;;;;;;4.82;1.50;;;;;;;18.56;52.65;99066.47;5114938;28;20493;-64
2023/03/26 01:06:57;;;;;;;4.13;1.85;;;;;;;18.53;52.91;99072.78;5114599;28;20027;-64
2023/03/26 01:09:31;;;;;;;2.95;1.48;;;;;;;18.54;52.87;99063.06;5114752;28;20064;-64
2023/03/26 01:11:59;;;;;;;3.97;1.40;;;;;;;18.54;52.83;99057.78;5114964;28;20500;-64
2023/03/26 01:14:25;;;;;;;3.38;1.60;;;;;;;18.53;52.95;99059.56;5115164;28;20106;-64
2023/03/26 01:17:00;;;;;;;5.03;1.75;;;;;;;18.55;52.59;99060.31;5114539;28;20108;-64
2023/03/26 01:19:43;;;;;;;4.60;1.70;;;;;;;18.52;52.84;99060.50;5114918;28;20038;-64
2023/03/26 01:22:13;;;;;;;3.80;1.45;;;;;;;18.52;52.66;99068.44;5113348;28;20114;-64
2023/03/26 01:24:39;;;;;;;4.35;1.70;;;;;;;18.49;52.70;99056.25;5114835;28;20020;-64
2023/03/26 01:27:37;;;;;;;4.20;1.50;;;;;;;18.52;52.82;99053.44;5114836;28;20027;-64
2023/03/26 01:30:10;;;;;;;3.83;1.63;;;;;;;18.53;52.56;99056.91;5114195;28;20129;-64
2023/03/26 01:33:12;;;;;;;2.95;1.27;;;;;;;18.51;52.90;99054.34;5114547;28;20086;-64
2023/03/26 01:36:12;;;;;;;4.30;1.70;;;;;;;18.52;52.70;99060.50;5114656;28;20110;-65
2023/03/26 01:39:00;;;;;;;3.88;1.52;;;;;;;18.52;52.70;99061.38;5114490;28;20047;-64
2023/03/26 01:41:50;;;;;;;3.15;1.20;;;;;;;18.51;52.87;99064.94;5114258;28;20023;-64
2023/03/26 01:44:40;;;;;;;3.72;1.60;;;;;;;18.51;52.72;99056.16;5114091;28;20031;-64
2023/03/26 01:47:08;;;;;;;2.58;1.40;;;;;;;18.51;52.62;99064.94;5114946;28;20042;-64
2023/03/26 01:49:34;;;;;;;4.80;1.60;;;;;;;18.50;52.56;99055.31;5114602;28;20023;-65
2023/03/26 01:51:59;;;;;;;2.72;1.50;;;;;;;18.51;52.80;99041.16;5114585;28;20019;-65
2023/03/26 01:54:30;;;;;;;2.15;1.20;;;;;;;18.51;52.59;99035.03;5114592;28;20024;-65
2023/03/26 01:56:58;;;;;;;3.50;1.58;;;;;;;18.49;52.71;99040.41;5114545;28;20031;-65
2023/03/26 01:59:43;;;;;;;3.88;1.60;;;;;;;18.50;52.78;99049.19;5113684;28;20041;-64
2023/03/26 02:02:13;;;;;;;4.50;1.42;;;;;;;18.48;52.57;99049.25;5113906;28;20031;-64
2023/03/26 02:04:55;;;;;;;3.17;1.35;;;;;;;18.49;52.78;99056.25;5113904;28;20487;-64
2023/03/26 02:07:27;;;;;;;3.22;1.48;;;;;;;18.51;52.52;99069.38;5114009;28;20157;-64
2023/03/26 02:09:58;;;;;;;2.72;1.50;;;;;;;18.49;52.50;99068.59;5113912;28;20416;-64
2023/03/26 02:12:24;;;;;;;3.08;1.40;;;;;;;18.48;52.61;99072.19;5113985;28;20080;-64
2023/03/26 02:14:50;;;;;;;2.70;1.35;;;;;;;18.48;52.87;99085.38;5113382;28;20110;-64
2023/03/26 02:17:17;;;;;;;3.03;1.50;;;;;;;18.46;52.82;99097.84;5112577;28;20067;-64
2023/03/26 02:19:43;;;;;;;3.28;1.40;;;;;;;18.46;52.60;99093.41;5113850;28;20020;-64
2023/03/26 02:22:14;;;;;;;3.55;1.40;;;;;;;18.46;52.53;99109.25;5113523;28;20039;-64
2023/03/26 02:24:43;;;;;;;3.00;1.45;;;;;;;18.45;52.79;99104.91;5113659;28;20404;-65
2023/03/26 02:27:11;;;;;;;2.10;1.20;;;;;;;18.45;52.75;99118.13;5113727;28;20107;-64
2023/03/26 02:29:38;;;;;;;3.50;1.60;;;;;;;18.44;52.50;99094.44;5113070;28;20115;-64
2023/03/26 02:32:12;;;;;;;3.40;1.40;;;;;;;18.48;52.81;99101.25;5113399;28;20443;-64
2023/03/26 02:34:39;;;;;;;4.18;1.33;;;;;;;18.45;52.60;99112.00;5112070;28;20433;-64
2023/03/26 02:37:05;;;;;;;3.53;1.33;;;;;;;18.44;52.54;99111.13;5113550;28;20039;-64
2023/03/26 02:39:30;;;;;;;3.42;1.55;;;;;;;18.43;52.84;99114.72;5113348;28;20122;-64
2023/03/26 02:41:55;;;;;;;2.38;1.40;;;;;;;18.45;52.66;99118.13;5113233;28;20028;-64
2023/03/26 02:44:21;;;;;;;3.53;1.63;;;;;;;18.44;52.55;99120.88;5111577;28;20076;-64
2023/03/26 02:46:46;;;;;;;3.28;1.30;;;;;;;18.44;52.57;99120.88;5113155;28;20476;-64
2023/03/26 02:49:12;;;;;;;4.07;1.63;;;;;;;18.45;52.54;99117.28;5113308;28;20027;-64
2023/03/26 02:51:37;;;;;;;3.47;1.77;;;;;;;18.44;52.55;99119.06;5112969;28;20036;-64
2023/03/26 02:54:03;;;;;;;3.10;1.35;;;;;;;18.44;52.65;99128.78;5113196;28;20032;-64
2023/03/26 02:56:29;;;;;;;3.22;1.48;;;;;;;18.42;52.84;99133.28;5112925;28;20047;-64
2023/03/26 02:58:54;;;;;;;4.13;1.60;;;;;;;18.40;52.67;99141.28;5112496;28;20047;-64
2023/03/26 03:01:20;;;;;;;2.35;1.33;;;;;;;18.41;52.63;99153.59;5112777;28;20126;-64
2023/03/26 03:03:48;;;;;;;3.83;1.55;;;;;;;18.38;52.54;99138.75;5112851;28;20039;-64
2023/03/26 03:06:17;;;;;;;3.85;1.60;;;;;;;18.37;52.69;99147.59;5112929;28;20024;-64
2023/03/26 03:08:44;;;;;;;2.42;1.20;;;;;;;18.37;52.52;99146.75;5112883;28;20038;-64
2023/03/26 03:11:20;;;;;;;3.90;1.55;;;;;;;18.34;52.43;99146.91;5112284;28;20035;-64
2023/03/26 03:13:46;;;;;;;3.05;1.67;;;;;;;18.33;52.28;99145.22;5112913;28;20019;-64
2023/03/26 03:16:12;;;;;;;3.00;1.40;;;;;;;18.30;52.34;99134.84;5112711;28;20857;-64
2023/03/26 03:18:37;;;;;;;4.13;1.65;;;;;;;18.31;52.28;99144.44;5112914;28;20042;-64
2023/03/26 03:21:04;;;;;;;3.28;1.38;;;;;;;18.28;52.62;99136.69;5112684;28;20031;-65
2023/03/26 03:23:30;;;;;;;3.55;1.40;;;;;;;18.26;52.56;99126.22;5112474;28;20395;-64
2023/03/26 03:25:56;;;;;;;4.35;1.80;;;;;;;18.25;52.76;99113.94;5112397;28;20045;-64
2023/03/26 03:28:23;;;;;;;2.55;1.35;;;;;;;18.25;52.64;99121.84;5112630;28;20023;-64
2023/03/26 03:30:51;;;;;;;2.67;1.42;;;;;;;18.25;52.60;99142.97;5112026;28;20103;-64
2023/03/26 03:33:19;;;;;;;3.03;1.35;;;;;;;18.23;52.37;99151.00;5112273;28;20047;-64
2023/03/26 03:35:46;;;;;;;4.57;1.60;;;;;;;18.22;52.71;99154.56;5112355;28;20053;-64
2023/03/26 03:38:12;;;;;;;2.80;1.35;;;;;;;18.21;52.69;99163.44;5112543;28;20023;-64
2023/03/26 03:40:37;;;;;;;4.22;1.77;;;;;;;18.22;52.66;99170.41;5111916;28;20023;-64
2023/03/26 03:43:03;;;;;;;4.18;1.58;;;;;;;18.21;52.77;99181.91;5112247;28;20075;-64
2023/03/26 03:45:28;;;;;;;3.97;1.60;;;;;;;18.23;52.60;99182.72;5112167;28;20028;-64
2023/03/26 03:47:54;;;;;;;2.70;1.52;;;;;;;18.21;52.56;99189.84;5112412;28;20023;-64
2023/03/26 03:50:19;;;;;;;3.45;1.40;;;;;;;18.23;52.72;99202.97;5111016;28;20028;-64
2023/03/26 03:52:45;;;;;;;3.28;1.38;;;;;;;18.23;52.40;99209.13;5112403;28;20031;-64
2023/03/26 03:55:12;;;;;;;2.97;1.35;;;;;;;18.25;52.56;99211.66;5112051;28;20050;-64
2023/03/26 03:57:39;;;;;;;3.60;1.45;;;;;;;18.23;52.68;99219.69;5112444;28;20055;-64
2023/03/26 04:00:07;;;;;;;3.72;1.50;;;;;;;18.23;52.63;99224.97;5112239;28;20035;-64
2023/03/26 04:02:33;;;;;;;2.67;1.27;;;;;;;18.22;52.49;99217.94;5112379;28;20030;-64
2023/03/26 04:05:00;;;;;;;2.90;1.30;;;;;;;18.22;52.66;99217.94;5112264;28;20118;-65
2023/03/26 04:07:29;;;;;;;2.88;1.27;;;;;;;18.21;52.75;99221.53;5112203;28;20027;-64
2023/03/26 04:09:54;;;;;;;3.42;1.40;;;;;;;18.23;52.28;99218.81;5111770;28;20023;-64
2023/03/26 04:12:20;;;;;;;3.17;1.50;;;;;;;18.21;52.71;99223.34;5112096;28;20030;-64
2023/03/26 04:14:45;;;;;;;2.40;1.38;;;;;;;18.22;52.68;99223.22;5112077;28;20027;-64
2023/03/26 04:17:12;;;;;;;3.55;1.35;;;;;;;18.20;52.56;99240.09;5112215;28;20039;-64
2023/03/26 04:19:39;;;;;;;4.13;1.65;;;;;;;18.21;52.29;99231.25;5111997;28;20106;-64
2023/03/26 04:22:05;;;;;;;3.63;1.55;;;;;;;18.23;52.54;99246.09;5112012;28;20028;-64
2023/03/26 04:24:37;;;;;;;3.08;1.42;;;;;;;18.22;52.38;99244.34;5111557;28;20028;-64
2023/03/26 04:27:05;;;;;;;3.55;1.27;;;;;;;18.22;52.58;99238.25;5112076;28;20019;-64
2023/03/26 04:29:37;;;;;;;2.03;1.15;;;;;;;18.22;52.41;99244.34;5111656;28;20065;-64
2023/03/26 04:32:05;;;;;;;2.85;1.30;;;;;;;18.21;52.45;99249.75;5111489;28;20505;-63
2023/03/26 04:34:33;;;;;;;2.80;1.35;;;;;;;18.21;52.75;99247.94;5111764;28;20507;-64
2023/03/26 04:37:00;;;;;;;2.38;1.02;;;;;;;18.20;52.57;99246.25;5111878;28;20019;-64
2023/03/26 04:39:28;;;;;;;3.28;1.35;;;;;;;18.21;52.64;99258.50;5111675;28;20098;-64
2023/03/26 04:41:54;;;;;;;2.08;1.20;;;;;;;18.21;52.66;99253.22;5111939;28;20069;-64
2023/03/26 04:44:21;;;;;;;3.13;1.60;;;;;;;18.21;52.41;99255.88;5115250;28;20032;-64
2023/03/26 04:46:51;;;;;;;4.10;1.23;;;;;;;18.19;52.64;99244.53;5115393;28;20081;-64
2023/03/26 04:49:17;;;;;;;2.63;1.23;;;;;;;18.19;52.46;99247.19;5115434;28;20069;-64
2023/03/26 04:51:45;;;;;;;3.42;1.30;;;;;;;18.20;52.63;99245.38;5115526;28;20035;-64
2023/03/26 04:54:12;;;;;;;3.78;1.65;;;;;;;18.20;52.69;99256.81;5114885;28;20028;-64
2023/03/26 04:56:51;;;;;;;2.38;1.20;;;;;;;18.21;52.46;99250.59;5115143;28;20030;-64
2023/03/26 04:59:24;;;;;;;3.97;1.40;;;;;;;18.21;52.34;99269.06;5115202;28;20583;-64
2023/03/26 05:01:53;;;;;;;4.10;1.60;;;;;;;18.21;52.43;99258.50;5115375;28;20028;-64
2023/03/26 05:04:21;;;;;;;4.53;1.30;;;;;;;18.22;52.41;99265.50;5115129;28;20115;-64
2023/03/26 05:06:46;;;;;;;3.55;1.35;;;;;;;18.21;52.32;99258.50;5115214;28;20030;-64
2023/03/26 05:09:13;;;;;;;3.55;1.20;;;;;;;18.23;52.32;99267.22;5114710;28;20020;-64
2023/03/26 05:11:39;;;;;;;2.95;1.10;;;;;;;18.21;52.58;99258.50;5114730;28;20023;-63
2023/03/26 05:14:04;;;;;;;3.60;1.30;;;;;;;18.23;52.76;99256.66;5114900;27;20030;-64
2023/03/26 05:16:30;;;;;;;2.85;1.17;;;;;;;18.21;52.29;99258.50;5113623;28;20110;-64
2023/03/26 05:18:56;;;;;;;2.63;1.30;;;;;;;18.20;52.65;99272.66;5114886;28;20023;-64
2023/03/26 05:21:21;;;;;;;3.15;1.15;;;;;;;18.21;52.31;99269.06;5114813;27;20023;-63
2023/03/26 05:23:47;;;;;;;3.15;1.40;;;;;;;18.19;52.31;99273.59;5114332;28;20388;-64
2023/03/26 05:26:12;;;;;;;3.53;1.23;;;;;;;18.18;52.50;99273.66;5114790;27;20035;-64
2023/03/26 05:28:38;;;;;;;4.45;1.42;;;;;;;18.17;52.55;99272.81;5114673;28;20016;-64
2023/03/26 05:31:04;;;;;;;3.45;1.52;;;;;;;18.17;52.49;99275.47;5114545;28;20047;-64
2023/03/26 05:33:29;;;;;;;3.67;1.40;;;;;;;18.15;52.51;99279.13;5114451;28;20036;-64
2023/03/26 05:36:08;;;;;;;3.28;1.25;;;;;;;18.15;52.48;99279.13;5114733;28;20049;-64
2023/03/26 05:38:34;;;;;;;2.72;1.40;;;;;;;18.13;52.37;99292.41;5114300;28;20033;-64
2023/03/26 05:41:05;;;;;;;2.85;1.23;;;;;;;18.13;52.55;99287.13;5114429;28;20038;-64
2023/03/26 05:43:31;;;;;;;2.33;1.00;;;;;;;18.11;52.29;99300.38;5114324;28;20177;-64
2023/03/26 05:45:56;;;;;;;2.78;1.20;;;;;;;18.11;52.47;99299.53;5114599;28;20432;-64
2023/03/26 05:48:23;;;;;;;2.80;1.33;;;;;;;18.10;52.65;99303.09;5114245;28;20473;-64
2023/03/26 05:50:52;;;;;;;2.17;0.93;;;;;;;18.09;52.51;99311.97;5113748;28;20097;-64
2023/03/26 05:53:19;;;;;;;3.03;1.15;;;;;;;18.10;52.56;99303.09;5113919;28;20057;-64
2023/03/26 05:55:46;;;;;;;2.33;0.95;;;;;;;18.07;52.63;99303.28;5114239;28;20023;-64
2023/03/26 05:58:14;;;;;;;2.13;1.17;;;;;;;18.08;52.32;99305.84;5114256;28;20098;-63
2023/03/26 06:00:40;;;;;;;3.00;1.33;;;;;;;18.06;52.60;99306.84;5114068;28;20065;-64
2023/03/26 06:03:11;;;;;;;3.40;1.30;;;;;;;18.06;52.57;99301.56;5114061;28;20020;-64
2023/03/26 06:05:37;;;;;;;4.45;1.73;;;;;;;18.05;52.39;99305.09;5113514;28;20389;-64
2023/03/26 06:08:03;;;;;;;3.45;1.20;;;;;;;18.05;52.56;99316.50;5114331;27;20024;-64
2023/03/26 06:10:29;;;;;;;3.55;1.35;;;;;;;18.03;52.49;99330.72;5114094;28;20026;-64
2023/03/26 06:12:54;;;;;;;2.83;1.10;;;;;;;18.04;52.69;99311.31;5114445;28;20027;-66
2023/03/26 06:15:20;;;;;;;3.88;1.35;;;;;;;18.04;52.47;99298.09;5114330;28;20024;-64
2023/03/26 06:17:45;;;;;;;3.05;1.30;;;;;;;18.04;52.41;99317.47;5114191;28;20103;-64
2023/03/26 06:20:11;;;;;;;4.10;0.98;;;;;;;18.06;52.33;99314.78;5113808;28;20099;-64
2023/03/26 06:22:37;;;;;;;2.78;1.50;;;;;;;18.05;52.20;99320.94;5113913;28;20030;-64
2023/03/26 06:25:03;;;;;;;4.28;1.20;;;;;;;18.04;52.39;99338.56;5113795;28;20038;-65
2023/03/26 06:27:28;;;;;;;3.45;1.02;;;;;;;18.03;52.72;99344.78;5113775;28;20028;-64
2023/03/26 06:29:54;;;;;;;3.97;1.55;;;;;;;18.02;52.27;99345.69;5113358;28;20035;-63
2023/03/26 06:32:19;;;;;;;3.90;1.00;;;;;;;18.01;52.35;99345.81;5113325;28;20417;-64
2023/03/26 06:34:45;;;;;;;2.53;1.17;;;;;;;17.98;52.54;99352.94;5113199;28;20501;-64
2023/03/26 06:37:10;;;;;;;3.22;1.20;;;;;;;17.96;52.43;99354.78;5113599;28;20019;-64
2023/03/26 06:39:36;;;;;;;4.68;1.40;;;;;;;17.97;52.56;99356.50;5113305;28;20469;-64
2023/03/26 06:42:01;;;;;;;2.85;1.00;;;;;;;17.94;52.74;99356.66;5113506;28;20031;-64
2023/03/26 06:44:26;;;;;;;1.70;1.05;;;;;;;17.94;52.43;99348.75;5113200;28;20028;-64
2023/03/26 06:46:52;;;;;;;4.47;1.13;;;;;;;17.92;52.60;99357.69;5113107;28;20030;-64
2023/03/26 06:49:17;;;;;;;3.55;1.33;;;;;;;17.93;52.71;99348.81;5112970;28;20054;-63
2023/03/26 06:51:43;;;;;;;3.47;1.13;;;;;;;17.92;52.66;99347.94;5113120;28;20053;-64
2023/03/26 06:54:09;;;;;;;3.65;1.08;;;;;;;17.94;52.36;99351.38;5113069;28;20060;-64
2023/03/26 06:56:34;;;;;;;4.30;1.40;;;;;;;17.93;52.80;99360.22;5113053;28;20019;-64
2023/03/26 06:59:00;;;;;;;3.47;1.10;;;;;;;17.93;52.65;99348.81;5112910;28;20027;-64
2023/03/26 07:01:25;;;;;;;4.22;1.10;;;;;;;17.93;52.59;99354.09;5113008;28;20020;-64
2023/03/26 07:03:50;;;;;;;3.33;1.20;;;;;;;17.92;52.72;99342.66;5111039;28;20023;-64
2023/03/26 07:06:16;;;;;;;2.28;0.93;;;;;;;17.92;52.44;99341.84;5112206;28;20381;-65
2023/03/26 07:08:41;;;;;;;2.55;0.93;;;;;;;17.90;52.67;99334.00;5112898;28;20055;-64
2023/03/26 07:11:07;;;;;;;2.63;1.20;;;;;;;17.93;52.80;99344.38;5112673;28;20019;-64
2023/03/26 07:13:33;;;;;;;2.55;1.25;;;;;;;17.92;52.44;99358.50;5112798;28;20382;-64
2023/03/26 07:15:58;;;;;;;3.53;1.20;;;;;;;17.93;52.42;99344.38;5112829;28;20012;-64
2023/03/26 07:18:23;;;;;;;3.97;1.15;;;;;;;17.90;52.58;99323.44;5112402;28;20024;-64
2023/03/26 07:20:49;;;;;;;4.18;1.20;;;;;;;17.92;52.34;99347.94;5112684;28;20020;-64
2023/03/26 07:23:18;;;;;;;3.03;0.98;;;;;;;17.92;52.57;99355.88;5112364;28;20016;-64
2023/03/26 07:25:45;;;;;;;2.42;1.00;;;;;;;17.91;52.71;99340.97;5112686;28;20525;-64
2023/03/26 07:28:17;;;;;;;1.55;0.80;;;;;;;17.93;52.61;99338.25;5112474;28;20019;-64
2023/03/26 07:31:01;;;;;;;2.90;1.23;;;;;;;17.90;52.59;99343.69;5112620;28;20043;-64
2023/03/26 07:33:45;;;;;;;2.97;1.08;;;;;;;17.91;52.55;99340.13;5111983;28;20093;-64
2023/03/26 07:36:20;;;;;;;4.60;1.00;;;;;;;17.90;52.56;99352.47;5112453;28;20102;-64
2023/03/26 07:39:20;;;;;;;3.95;1.20;;;;;;;17.91;52.56;99335.69;5112358;28;20036;-64
2023/03/26 07:42:02;;;;;;;3.50;1.00;;;;;;;17.91;52.53;99335.69;5112295;28;20027;-64
2023/03/26 07:44:43;;;;;;;2.90;1.00;;;;;;;17.91;52.42;99340.97;5112443;28;20028;-64
2023/03/26 07:47:35;;;;;;;3.72;1.33;;;;;;;17.90;52.22;99360.38;5112134;28;20035;-64
2023/03/26 07:50:01;;;;;;;2.58;0.90;;;;;;;17.90;52.38;99357.75;5109331;28;20057;-65
2023/03/26 07:52:27;;;;;;;2.63;1.00;;;;;;;17.90;52.25;99365.66;5112477;28;20028;-64
2023/03/26 07:54:55;;;;;;;4.43;1.40;;;;;;;17.92;52.41;99362.97;5112311;28;20400;-64
2023/03/26 07:57:30;;;;;;;1.88;0.88;;;;;;;17.91;52.30;99367.38;5112329;28;20031;-64
2023/03/26 08:00:16;;;;;;;2.38;0.98;;;;;;;17.92;52.27;99371.72;5112284;28;20440;-64
2023/03/26 08:02:50;;;;;;;2.58;0.85;;;;;;;17.93;52.51;99349.66;5111928;28;20080;-64
2023/03/26 08:05:25;;;;;;;2.70;1.20;;;;;;;17.91;52.56;99327.78;5112192;28;20035;-64
2023/03/26 08:08:35;;;;;;;2.95;0.93;;;;;;;17.92;52.28;99347.94;5112112;28;20028;-64
2023/03/26 08:11:11;;;;;;;2.40;1.02;;;;;;;17.91;52.27;99356.81;5049470;28;20052;-64
2023/03/26 08:13:55;;;;;;;2.30;0.80;;;;;;;17.91;52.33;99361.25;5049378;28;20039;-64
2023/03/26 08:16:50;;;;;;;2.17;0.90;;;;;;;17.89;52.59;99353.41;5049324;28;20053;-64
2023/03/26 08:19:53;;;;;;;3.88;1.15;;;;;;;17.90;52.53;99359.50;5053128;28;20545;-64
2023/03/26 08:22:26;;;;;;;3.33;1.27;;;;;;;17.88;52.57;99362.25;5053083;28;20036;-64
2023/03/26 08:25:00;;;;;;;1.30;0.70;;;;;;;17.88;52.58;99367.53;5053065;28;20618;-64
2023/03/26 08:28:10;;;;;;;2.35;0.93;;;;;;;17.89;52.25;99374.53;5053078;28;20059;-64
2023/03/26 08:30:36;;;;;;;2.47;0.80;;;;;;;17.88;52.40;99383.38;5052339;28;20112;-64
2023/03/26 08:33:15;;;;;;;3.97;1.00;;;;;;;17.88;52.31;99372.81;5052826;28;20124;-65
2023/03/26 08:35:41;;;;;;;3.45;0.90;;;;;;;17.89;52.29;99365.72;5052763;28;20510;-64
2023/03/26 08:38:15;;;;;;;3.33;1.20;;;;;;;17.90;52.36;99365.66;5052682;28;20032;-64
2023/03/26 08:41:01;;;;;;;3.45;1.10;;;;;;;17.88;52.43;99383.38;5055550;28;20108;-64
2023/03/26 08:43:54;;;;;;;2.20;0.98;;;;;;;17.89;52.52;99384.22;5115397;28;20106;-64
2023/03/26 08:46:31;;;;;;;3.22;0.98;;;;;;;17.88;52.26;99383.38;5115310;28;20043;-64
2023/03/26 08:49:11;;;;;;;3.55;1.02;;;;;;;17.88;52.53;99383.38;5114206;28;20031;-64
2023/03/26 08:51:58;;;;;;;2.85;1.20;;;;;;;17.89;52.39;99385.06;5115605;28;20056;-63
2023/03/26 08:54:47;;;;;;;1.90;0.93;;;;;;;17.89;52.29;99389.50;5115642;27;20393;-64
2023/03/26 08:57:40;;;;;;;2.25;0.90;;;;;;;17.90;52.37;99393.84;5115313;28;20040;-64
2023/03/26 09:00:18;;;;;;;2.70;1.02;;;;;;;17.89;52.22;99403.56;5113662;28;20027;-64
2023/03/26 09:02:52;;;;;;;4.28;1.20;;;;;;;17.87;52.37;99392.19;5113922;28;20038;-64
2023/03/26 09:05:36;;;;;;;2.67;0.80;;;;;;;17.89;52.40;99411.47;5115074;28;20031;-64
2023/03/26 09:08:17;;;;;;;2.63;1.05;;;;;;;17.89;52.27;99411.47;5113989;28;20081;-65
2023/03/26 09:10:51;;;;;;;3.03;1.00;;;;;;;17.89;52.30;99410.59;5115173;28;20038;-64
2023/03/26 09:13:23;;;;;;;3.30;0.80;;;;;;;17.89;52.29;99421.16;5115072;28;20051;-64
2023/03/26 09:15:48;;;;;;;2.72;0.90;;;;;;;17.87;52.56;99415.97;5114527;28;20530;-64
2023/03/26 09:18:35;;;;;;;3.13;0.90;;;;;;;17.88;52.55;99414.19;5114827;28;20032;-64
2023/03/26 09:21:21;;;;;;;3.25;1.08;;;;;;;17.87;52.47;99397.47;5115170;28;20080;-64
2023/03/26 09:24:10;;;;;;;3.55;0.90;;;;;;;17.88;52.37;99415.06;5114820;28;20028;-64
2023/03/26 09:26:57;;;;;;;3.15;1.10;;;;;;;17.88;52.51;99417.69;5114916;28;20424;-64
2023/03/26 09:29:28;;;;;;;3.70;0.82;;;;;;;17.85;52.22;99410.78;5113605;28;20620;-64
2023/03/26 09:32:05;;;;;;;2.83;0.98;;;;;;;17.85;52.30;99409.91;5114636;28;20058;-64
2023/03/26 09:35:09;;;;;;;2.25;1.02;;;;;;;17.84;52.54;99402.94;5114626;28;20032;-64
2023/03/26 09:38:10;;;;;;;2.42;0.88;;;;;;;17.85;52.51;99415.19;5114420;28;20106;-64
2023/03/26 09:41:02;;;;;;;3.50;1.02;;;;;;;17.84;52.28;99402.94;5114334;28;20031;-64
2023/03/26 09:43:36;;;;;;;3.88;0.80;;;;;;;17.84;52.55;99408.19;5114042;28;20019;-64
2023/03/26 09:46:33;;;;;;;2.60;0.98;;;;;;;17.84;52.37;99409.03;5114461;28;20032;-64
2023/03/26 09:49:20;;;;;;;2.90;1.25;;;;;;;17.82;52.27;99410.06;5114375;28;20028;-64
2023/03/26 09:52:27;;;;;;;2.83;1.13;;;;;;;17.82;52.45;99405.63;5114395;28;20046;-64
2023/03/26 09:54:52;;;;;;;2.50;0.90;;;;;;;17.81;52.39;99414.47;5051278;28;20067;-64
2023/03/26 09:57:36;;;;;;;2.67;1.00;;;;;;;17.83;52.26;99417.06;5051065;28;20458;-64
2023/03/26 10:00:26;;;;;;;3.15;1.10;;;;;;;17.81;52.58;99410.97;5051275;28;20041;-64
2023/03/26 10:03:09;;;;;;;3.63;0.93;;;;;;;17.83;52.71;99411.78;5051257;28;20112;-64
2023/03/26 10:05:40;;;;;;;2.10;0.88;;;;;;;17.83;52.41;99422.34;5051141;28;20565;-64
2023/03/26 10:08:24;;;;;;;3.33;0.98;;;;;;;17.84;52.49;99413.47;5051050;28;20078;-64
2023/03/26 10:11:04;;;;;;;2.38;1.00;;;;;;;17.83;52.64;99409.13;5050756;28;20068;-64
2023/03/26 10:13:58;;;;;;;2.65;1.05;;;;;;;17.83;52.40;99403.84;5050632;28;20376;-65
2023/03/26 10:16:32;;;;;;;3.00;1.08;;;;;;;17.83;52.51;99406.50;5051160;28;20033;-64
2023/03/26 10:19:09;;;;;;;2.47;1.17;;;;;;;17.83;52.61;99407.34;5050940;28;20043;-64
2023/03/26 10:22:23;;;;;;;3.63;1.05;;;;;;;17.83;52.45;99409.13;5050743;28;20037;-64
2023/03/26 10:25:17;;;;;;;3.97;1.10;;;;;;;17.86;52.36;99416.88;5050554;28;20123;-64
2023/03/26 10:27:57;;;;;;;1.88;0.77;;;;;;;17.84;52.65;99402.94;4991105;28;20104;-65
2023/03/26 10:30:38;;;;;;;4.32;1.17;;;;;;;17.84;52.41;99405.56;4991284;28;20420;-64
2023/03/26 10:33:18;;;;;;;2.35;0.85;;;;;;;17.84;52.61;99398.47;5049003;28;20044;-64
2023/03/26 10:36:13;;;;;;;2.63;0.90;;;;;;;17.87;52.46;99384.28;5050823;28;20041;-65
2023/03/26 10:38:55;;;;;;;4.07;1.55;;;;;;;17.85;52.61;99383.50;5050802;28;20090;-64
2023/03/26 10:41:32;;;;;;;2.13;1.00;;;;;;;17.86;52.50;99385.22;5049237;28;20029;-64
2023/03/26 10:44:05;;;;;;;2.45;0.93;;;;;;;17.86;52.41;99379.94;5050378;28;20056;-64
2023/03/26 10:46:54;;;;;;;2.55;1.00;;;;;;;17.87;52.31;99381.63;5050179;28;20116;-64
2023/03/26 10:49:47;;;;;;;3.15;1.17;;;;;;;17.88;52.20;99371.94;5050290;28;20067;-64
2023/03/26 10:52:16;;;;;;;2.28;0.93;;;;;;;17.90;52.59;99381.50;5050259;28;20048;-64
2023/03/26 10:54:51;;;;;;;3.40;1.20;;;;;;;17.89;52.52;99377.16;5050329;28;20025;-64
2023/03/26 10:57:37;;;;;;;4.13;1.05;;;;;;;17.90;52.15;99381.50;5050038;28;20100;-64
2023/03/26 11:00:15;;;;;;;2.45;1.13;;;;;;;17.91;52.51;99388.50;5050047;28;20491;-65
2023/03/26 11:03:13;;;;;;;3.20;1.10;;;;;;;17.90;52.32;99380.63;5050122;28;20040;-64
2023/03/26 11:06:11;;;;;;;3.05;1.10;;;;;;;17.91;52.21;99383.22;5075100;28;20036;-64
2023/03/26 11:08:58;;;;;;;3.00;1.10;;;;;;;17.90;52.47;99370.94;5092193;28;20036;-64
2023/03/26 11:11:26;;;;;;;2.50;1.08;;;;;;;17.90;52.58;99359.50;5092300;28;20418;-65
2023/03/26 11:14:18;;;;;;;4.10;1.25;;;;;;;17.94;52.42;99350.53;5091155;28;20409;-64
2023/03/26 11:17:21;;;;;;;3.60;1.05;;;;;;;17.94;52.21;99354.03;5092400;28;20047;-64
2023/03/26 11:19:56;;;;;;;4.00;1.33;;;;;;;17.94;52.29;99351.38;5092483;28;20107;-64
2023/03/26 11:22:39;;;;;;;3.47;1.10;;;;;;;17.94;52.20;99343.47;5092322;28;20051;-64
2023/03/26 11:25:42;;;;;;;3.72;1.30;;;;;;;17.99;52.19;99332.66;5091947;28;20282;-64
2023/03/26 11:28:16;;;;;;;2.08;0.80;;;;;;;18.01;52.14;99324.69;5093319;28;20044;-64
2023/03/26 11:30:58;;;;;;;3.50;1.20;;;;;;;18.02;52.35;99323.75;5112371;28;20752;-64
2023/03/26 11:33:33;;;;;;;5.38;1.58;;;;;;;18.03;52.24;99333.38;5112336;28;20115;-64
2023/03/26 11:36:05;;;;;;;4.25;1.27;;;;;;;18.01;52.39;99332.59;5112517;28;20098;-64
2023/03/26 11:38:42;;;;;;;3.40;1.30;;;;;;;18.04;52.31;99324.50;5112142;28;20016;-66
2023/03/26 11:41:19;;;;;;;3.95;0.90;;;;;;;18.02;52.29;99327.22;5112553;28;20019;-64
2023/03/26 11:43:49;;;;;;;4.13;1.10;;;;;;;18.05;52.31;99331.50;5112433;28;20022;-64
2023/03/26 11:46:19;;;;;;;4.82;1.60;;;;;;;18.04;52.17;99327.16;5112359;28;20503;-64
2023/03/26 11:48:48;;;;;;;5.47;1.58;;;;;;;18.05;52.31;99308.59;5112194;28;20385;-64
2023/03/26 11:51:21;;;;;;;4.55;1.40;;;;;;;18.06;52.39;99322.69;5112495;28;20604;-64
2023/03/26 11:53:47;;;;;;;4.00;1.13;;;;;;;18.08;52.19;99310.25;5116101;28;20019;-63
2023/03/26 11:56:24;;;;;;;4.38;1.45;;;;;;;18.14;52.08;99309.94;5116729;28;20030;-64
2023/03/26 11:59:08;;;;;;;5.00;1.20;;;;;;;18.13;51.96;99295.03;5116482;28;20051;-64
2023/03/26 12:01:49;;;;;;;4.30;1.23;;;;;;;18.13;52.17;99288.88;5116426;28;20023;-64